Time;durP1;ratioP1;P1;durP2;ratioP2;P2;SDS_P1;SDS_P2;PMS_P1;PMS_P2;Temp;Humidity;BMP_temperature;BMP_pressure;BME280_temperature;BME280_humidity;BME280_pressure;Samples;Min_cycle;Max_cycle;Signal;HPM_P1;HPM_P2
2022/12/02 00:01:20;;;;;;;1999.90;999.90;;;;;;;3.80;100.00;95157.66;4977542;28;20611;-62
2022/12/02 00:03:46;;;;;;;1999.90;999.90;;;;;;;3.83;100.00;95150.75;4977438;28;20232;-63
2022/12/02 00:06:27;;;;;;;1999.90;999.90;;;;;;;3.81;100.00;95153.03;4977201;28;20180;-64
2022/12/02 00:08:54;;;;;;;1999.90;999.90;;;;;;;3.79;100.00;95152.63;4977250;28;20161;-64
2022/12/02 00:11:26;;;;;;;1999.90;999.90;;;;;;;3.75;100.00;95149.09;4977288;28;20181;-63
2022/12/02 00:13:52;;;;;;;1999.90;999.90;;;;;;;3.73;100.00;95151.38;4976568;28;20169;-63
2022/12/02 00:16:22;;;;;;;1999.90;999.90;;;;;;;3.70;100.00;95142.09;4976325;28;20181;-64
2022/12/02 00:18:49;;;;;;;1999.90;999.90;;;;;;;3.67;100.00;95142.06;4976852;28;20201;-64
2022/12/02 00:21:15;;;;;;;1999.90;999.90;;;;;;;3.64;100.00;95137.38;4976217;28;20228;-64
2022/12/02 00:23:41;;;;;;;1999.90;999.90;;;;;;;3.63;100.00;95130.41;4976716;28;20181;-65
2022/12/02 00:26:06;;;;;;;1999.90;999.90;;;;;;;3.68;100.00;95127.41;4976355;28;20296;-65
2022/12/02 00:28:31;;;;;;;1999.90;999.90;;;;;;;3.61;100.00;95120.00;4977127;28;20219;-64
2022/12/02 00:30:57;;;;;;;1999.90;999.90;;;;;;;3.64;100.00;95116.56;4976850;28;20228;-62
2022/12/02 00:33:22;;;;;;;1999.90;999.90;;;;;;;3.65;100.00;95103.84;4976016;28;20231;-62
2022/12/02 00:35:48;;;;;;;1999.90;999.90;;;;;;;3.66;100.00;95103.47;4976214;28;20181;-62
2022/12/02 00:38:13;;;;;;;1999.90;999.90;;;;;;;3.68;100.00;95105.81;4976410;28;20205;-62
2022/12/02 00:40:39;;;;;;;1999.90;999.90;;;;;;;3.66;100.00;95102.69;4975611;28;20176;-63
2022/12/02 00:48:32;;;;;;;1999.90;999.90;;;;;;;3.64;100.00;95083.41;4977413;28;20172;-63
2022/12/02 00:50:57;;;;;;;1999.90;999.90;;;;;;;3.69;100.00;95085.75;4975838;28;20177;-62
2022/12/02 00:53:23;;;;;;;1999.90;999.90;;;;;;;3.69;100.00;95080.38;4975949;28;20230;-72
2022/12/02 00:55:48;;;;;;;1999.90;999.90;;;;;;;3.64;100.00;95072.59;4975562;28;20656;-72
2022/12/02 00:58:14;;;;;;;1999.90;999.90;;;;;;;3.64;100.00;95076.06;4975944;28;20200;-72
2022/12/02 01:00:39;;;;;;;1999.90;999.90;;;;;;;3.65;100.00;95085.72;4975689;28;20610;-72
2022/12/02 01:03:04;;;;;;;1999.90;999.90;;;;;;;3.64;100.00;95083.41;4975768;28;20173;-72
2022/12/02 01:05:30;;;;;;;1999.90;999.90;;;;;;;3.62;100.00;95080.28;4975427;28;20230;-72
2022/12/02 01:07:55;;;;;;;1999.90;999.90;;;;;;;3.62;100.00;95082.97;4975283;28;20212;-63
2022/12/02 01:10:20;;;;;;;1999.90;999.90;;;;;;;3.63;100.00;95081.81;4975645;28;20172;-66
2022/12/02 01:12:46;;;;;;;1999.90;999.90;;;;;;;3.65;100.00;95076.84;4975471;28;20211;-66
2022/12/02 01:15:12;;;;;;;1999.90;999.90;;;;;;;3.69;100.00;95080.38;4975693;28;20204;-66
2022/12/02 01:17:37;;;;;;;1999.90;999.90;;;;;;;3.67;100.00;95071.88;4975832;28;20183;-67
2022/12/02 01:20:03;;;;;;;1999.90;999.90;;;;;;;3.69;100.00;95066.88;4975233;28;20220;-66
2022/12/02 01:22:28;;;;;;;1999.90;999.90;;;;;;;3.72;100.00;95074.25;4975556;28;20230;-66
2022/12/02 01:24:56;;;;;;;1999.90;999.90;;;;;;;3.74;100.00;95071.94;4975866;28;20540;-68
2022/12/02 01:27:22;;;;;;;1999.90;999.90;;;;;;;3.75;100.00;95068.13;4975458;28;20211;-70
2022/12/02 01:29:48;;;;;;;1999.90;999.90;;;;;;;3.75;100.00;95068.88;4975413;28;20203;-72
2022/12/02 01:32:13;;;;;;;1999.90;999.90;;;;;;;3.74;100.00;95061.13;4975368;28;20530;-72
2022/12/02 01:34:40;;;;;;;1999.90;999.90;;;;;;;3.75;100.00;95057.31;4975239;28;20176;-72
2022/12/02 01:37:05;;;;;;;1999.90;999.90;;;;;;;3.75;100.00;95068.88;4975161;28;20172;-74
2022/12/02 01:39:31;;;;;;;1999.90;999.90;;;;;;;3.75;100.00;95065.41;4975567;28;20207;-75
2022/12/02 01:41:56;;;;;;;1999.90;999.90;;;;;;;3.75;100.00;95066.16;4975115;28;20208;-75
2022/12/02 01:44:22;;;;;;;1999.90;999.90;;;;;;;3.75;100.00;95062.72;4975273;28;20176;-66
2022/12/02 01:46:48;;;;;;;1999.90;999.90;;;;;;;3.78;100.00;95067.38;4974727;28;20176;-71
2022/12/02 01:49:13;;;;;;;1999.90;999.90;;;;;;;3.68;100.00;95068.03;4975073;28;20573;-71
2022/12/02 01:51:39;;;;;;;1999.90;999.90;;;;;;;3.70;100.00;95063.81;4973928;28;20177;-71
2022/12/02 01:54:04;;;;;;;1999.90;999.90;;;;;;;3.68;100.00;95065.31;4974453;28;20200;-69
2022/12/02 01:56:30;;;;;;;1999.90;999.90;;;;;;;3.67;100.00;95063.78;4975058;28;20267;-69
2022/12/02 01:58:55;;;;;;;1999.90;999.90;;;;;;;3.69;100.00;95058.78;4975156;28;20481;-69
2022/12/02 02:01:26;;;;;;;1999.90;999.90;;;;;;;3.67;100.00;95052.97;4975353;28;20181;-70
2022/12/02 02:03:52;;;;;;;1999.90;999.90;;;;;;;3.71;100.00;95048.41;4975113;28;20202;-74
2022/12/02 02:06:17;;;;;;;1999.90;999.90;;;;;;;3.65;100.00;95052.56;4975043;28;20177;-64
2022/12/02 02:08:42;;;;;;;1999.90;999.90;;;;;;;3.58;100.00;95040.50;4974812;28;20575;-64
2022/12/02 02:11:08;;;;;;;1999.90;999.90;;;;;;;3.53;100.00;95040.84;4975204;28;20184;-64
2022/12/02 02:13:33;;;;;;;1999.90;999.90;;;;;;;3.54;100.00;95031.59;4975184;28;20172;-63
2022/12/02 02:15:59;;;;;;;1999.90;999.90;;;;;;;3.54;100.00;95023.50;4974470;28;20180;-63
2022/12/02 02:18:24;;;;;;;1999.90;999.90;;;;;;;3.57;100.00;95015.81;4974329;28;20196;-65
2022/12/02 02:20:50;;;;;;;1999.90;999.90;;;;;;;3.57;100.00;95003.09;4974428;28;20217;-72
2022/12/02 02:23:24;;;;;;;1999.90;999.90;;;;;;;3.57;100.00;95002.34;4974567;28;20168;-70
2022/12/02 02:25:58;;;;;;;1999.90;999.90;;;;;;;3.57;100.00;94991.53;4975047;28;20168;-64
2022/12/02 02:28:25;;;;;;;1999.90;999.90;;;;;;;3.51;100.00;94989.16;4975138;28;20161;-64
2022/12/02 02:30:53;;;;;;;1999.90;999.90;;;;;;;3.52;100.00;94973.75;4974313;28;20172;-63
2022/12/02 02:33:20;;;;;;;1999.90;999.90;;;;;;;3.53;100.00;94974.53;4974426;28;20686;-64
2022/12/02 02:35:46;;;;;;;1999.90;999.90;;;;;;;3.50;100.00;94966.00;4974744;28;20176;-63
2022/12/02 02:38:15;;;;;;;1999.90;999.90;;;;;;;3.58;100.00;94956.84;4974383;28;20204;-63
2022/12/02 02:40:42;;;;;;;1999.90;999.90;;;;;;;3.53;100.00;94954.50;4975011;28;20642;-65
2022/12/02 02:43:08;;;;;;;1999.90;999.90;;;;;;;3.53;100.00;94939.44;4974685;28;20176;-62
2022/12/02 02:45:36;;;;;;;1999.90;999.90;;;;;;;3.51;100.00;94934.41;4974868;28;20307;-61
2022/12/02 02:48:04;;;;;;;1999.90;999.90;;;;;;;3.49;100.00;94939.38;4974433;28;20215;-61
2022/12/02 02:50:30;;;;;;;1999.90;999.90;;;;;;;3.46;100.00;94924.72;4974039;28;20183;-62
2022/12/02 02:52:56;;;;;;;1999.90;999.90;;;;;;;3.45;100.00;94928.56;4974985;28;20280;-62
2022/12/02 02:55:24;;;;;;;1999.90;999.90;;;;;;;3.47;100.00;94918.16;4974292;28;20199;-62
2022/12/02 02:57:51;;;;;;;1999.90;999.90;;;;;;;3.47;100.00;94923.56;4974199;28;20243;-65
2022/12/02 03:00:21;;;;;;;1999.90;999.90;;;;;;;3.51;100.00;94913.59;4974785;28;20185;-64
2022/12/02 03:02:53;;;;;;;1999.90;999.90;;;;;;;3.49;100.00;94910.50;4973952;28;20191;-65
2022/12/02 03:05:20;;;;;;;1999.90;999.90;;;;;;;3.48;100.00;94903.56;4977942;28;20299;-65
2022/12/02 03:07:47;;;;;;;1999.90;999.90;;;;;;;3.47;100.00;94901.97;4977866;28;20188;-67
2022/12/02 03:10:12;;;;;;;1999.90;999.90;;;;;;;3.53;100.00;94896.28;4977533;28;20276;-65
2022/12/02 03:12:38;;;;;;;1999.90;999.90;;;;;;;3.48;100.00;94895.47;4977400;28;20260;-65
2022/12/02 03:15:05;;;;;;;1999.90;999.90;;;;;;;3.48;100.00;94892.75;4978204;28;20177;-65
2022/12/02 03:17:30;;;;;;;1999.90;999.90;;;;;;;3.47;100.00;94896.59;4978816;28;20176;-73
2022/12/02 03:19:56;;;;;;;1999.90;999.90;;;;;;;3.47;100.00;94896.59;4977175;28;20224;-63
2022/12/02 03:22:22;;;;;;;1999.90;999.90;;;;;;;3.44;100.00;94891.94;4978003;28;20529;-63
2022/12/02 03:24:48;;;;;;;1999.90;999.90;;;;;;;3.47;100.00;94896.59;4977245;28;20308;-63
2022/12/02 03:27:14;;;;;;;1999.90;999.90;;;;;;;3.51;100.00;94889.28;4978050;28;20216;-62
2022/12/02 03:29:40;;;;;;;1999.90;999.90;;;;;;;3.53;100.00;94890.88;4977432;28;20181;-63
2022/12/02 03:32:09;;;;;;;1999.90;999.90;;;;;;;3.48;100.00;94898.16;4977358;28;20177;-63
2022/12/02 03:34:35;;;;;;;1999.90;999.90;;;;;;;3.50;100.00;94882.34;4977874;28;20252;-62
2022/12/02 03:37:01;;;;;;;1999.90;999.90;;;;;;;3.56;100.00;94888.19;4977429;28;20207;-62
2022/12/02 03:39:27;;;;;;;1999.90;999.90;;;;;;;3.54;100.00;94893.97;4977577;28;20204;-62
2022/12/02 03:41:53;;;;;;;1999.90;999.90;;;;;;;3.54;100.00;94896.66;4976905;28;20192;-63
2022/12/02 03:44:18;;;;;;;1999.90;999.90;;;;;;;3.60;100.00;94896.34;4977271;28;20271;-62
2022/12/02 03:46:43;;;;;;;1999.90;999.90;;;;;;;3.57;100.00;94894.38;4977768;28;20184;-62
2022/12/02 03:49:10;;;;;;;1999.90;999.90;;;;;;;3.47;100.00;94896.59;4977050;28;20281;-62
2022/12/02 03:51:36;;;;;;;1999.90;999.90;;;;;;;3.53;100.00;94890.88;4977902;28;20173;-62
2022/12/02 03:54:01;;;;;;;1999.90;999.90;;;;;;;3.56;100.00;94890.13;4976911;28;20182;-60
2022/12/02 03:56:27;;;;;;;1999.90;999.90;;;;;;;3.58;100.00;94883.97;4977625;28;20177;-61
2022/12/02 03:58:53;;;;;;;1999.90;999.90;;;;;;;3.63;100.00;94882.06;4976705;28;20733;-60
2022/12/02 04:01:20;;;;;;;1999.90;999.90;;;;;;;3.62;100.00;94880.53;4976778;28;20176;-60
2022/12/02 04:03:45;;;;;;;1999.90;999.90;;;;;;;3.61;100.00;94890.56;4977120;28;20289;-60
2022/12/02 04:06:11;;;;;;;1999.90;999.90;;;;;;;3.62;100.00;94888.63;4976886;28;20215;-60
2022/12/02 04:08:37;;;;;;;1999.90;999.90;;;;;;;3.64;100.00;94880.94;4976596;28;20227;-60
2022/12/02 04:11:03;;;;;;;1999.90;999.90;;;;;;;3.64;100.00;94879.00;4976270;28;20272;-69
2022/12/02 04:13:28;;;;;;;1999.90;999.90;;;;;;;3.60;100.00;94872.81;4976629;28;20172;-63
2022/12/02 04:15:53;;;;;;;1999.90;999.90;;;;;;;3.62;100.00;94880.53;4975199;28;20177;-65
2022/12/02 04:18:19;;;;;;;1999.90;999.90;;;;;;;3.56;100.00;94879.34;4977430;28;20275;-64
2022/12/02 04:20:44;;;;;;;1999.90;999.90;;;;;;;3.51;100.00;94875.81;4976529;28;20633;-65
2022/12/02 04:23:10;;;;;;;1999.90;999.90;;;;;;;3.60;100.00;94866.66;4976651;28;20267;-65
2022/12/02 04:25:35;;;;;;;1999.90;999.90;;;;;;;3.58;100.00;94867.78;4976326;28;20176;-64
2022/12/02 04:28:00;;;;;;;1999.90;999.90;;;;;;;3.58;100.00;94859.69;4976537;28;20218;-65
2022/12/02 04:30:26;;;;;;;1999.90;999.90;;;;;;;3.49;100.00;94856.53;4976429;28;20241;-64
2022/12/02 04:32:51;;;;;;;1999.90;999.90;;;;;;;3.57;100.00;94862.00;4976379;28;20191;-60
2022/12/02 04:35:16;;;;;;;1999.90;999.90;;;;;;;3.51;100.00;94862.31;4976243;28;20181;-60
2022/12/02 04:37:42;;;;;;;1999.90;999.90;;;;;;;3.50;100.00;94858.06;4976261;28;20169;-60
2022/12/02 04:40:08;;;;;;;1999.90;999.90;;;;;;;3.47;100.00;94853.41;4976833;28;20188;-60
2022/12/02 04:42:33;;;;;;;1999.90;999.90;;;;;;;3.58;100.00;94847.34;4975834;28;20176;-60
2022/12/02 04:44:59;;;;;;;1999.90;999.90;;;;;;;3.63;100.00;94860.47;4976016;28;20180;-60
2022/12/02 04:47:24;;;;;;;1999.90;999.90;;;;;;;3.62;100.00;94846.22;4976032;28;20177;-61
2022/12/02 04:49:49;;;;;;;1999.90;999.90;;;;;;;3.63;100.00;94850.47;4975762;28;20190;-66
2022/12/02 04:52:15;;;;;;;1999.90;999.90;;;;;;;3.66;100.00;94854.34;4975940;28;20220;-62
2022/12/02 04:54:40;;;;;;;1999.90;999.90;;;;;;;3.67;100.00;94851.28;4975834;28;20177;-62
2022/12/02 04:57:06;;;;;;;1999.90;999.90;;;;;;;3.61;100.00;94852.78;4976476;28;20185;-62
2022/12/02 04:59:31;;;;;;;1999.90;999.90;;;;;;;3.56;100.00;94855.03;4975694;28;20681;-62
2022/12/02 05:01:57;;;;;;;1999.90;999.90;;;;;;;3.53;100.00;94857.34;4975852;28;20191;-62
2022/12/02 05:04:22;;;;;;;1999.90;999.90;;;;;;;3.56;100.00;94850.41;4975739;28;20251;-62
2022/12/02 05:06:47;;;;;;;1999.90;999.90;;;;;;;3.51;100.00;94850.75;4976137;28;20227;-73
2022/12/02 05:09:15;;;;;;;1999.90;999.90;;;;;;;3.44;100.00;94848.78;4975765;28;20231;-62
2022/12/02 05:11:41;;;;;;;1999.90;999.90;;;;;;;3.50;100.00;94851.91;4975285;28;20173;-62
2022/12/02 05:14:06;;;;;;;1999.90;999.90;;;;;;;3.43;100.00;94844.50;4975555;28;20218;-62
2022/12/02 05:16:31;;;;;;;1999.90;999.90;;;;;;;3.45;100.00;94831.44;4975274;28;20212;-61
2022/12/02 05:18:57;;;;;;;1999.90;999.90;;;;;;;3.47;100.00;94821.03;4974956;28;20235;-62
2022/12/02 05:21:22;;;;;;;1999.90;999.90;;;;;;;3.47;100.00;94826.41;4975049;28;20221;-61
2022/12/02 05:23:47;;;;;;;1999.90;999.90;;;;;;;3.45;100.00;94823.34;4975222;28;20208;-62
2022/12/02 05:26:13;;;;;;;1999.90;999.90;;;;;;;3.45;100.00;94823.34;4975434;28;20212;-61
2022/12/02 05:28:38;;;;;;;1999.90;999.90;;;;;;;3.49;100.00;94824.13;4975251;28;20187;-65
2022/12/02 05:31:03;;;;;;;1999.90;999.90;;;;;;;3.51;100.00;94816.44;4975661;28;20184;-65
2022/12/02 05:33:29;;;;;;;1999.90;999.90;;;;;;;3.53;100.00;94824.16;4975703;28;20526;-65
2022/12/02 05:35:54;;;;;;;1999.90;999.90;;;;;;;3.51;100.00;94827.22;4975211;28;20172;-65
2022/12/02 05:38:20;;;;;;;1999.90;999.90;;;;;;;3.48;100.00;94830.69;4975117;28;20204;-66
2022/12/02 05:40:45;;;;;;;1999.90;999.90;;;;;;;3.40;100.00;94831.75;4975120;28;20448;-65
2022/12/02 05:43:23;;;;;;;1999.90;999.90;;;;;;;3.45;100.00;94826.03;4975044;28;20216;-66
2022/12/02 05:45:48;;;;;;;1999.90;999.90;;;;;;;3.45;100.00;94823.34;4974595;28;20176;-67
2022/12/02 05:48:17;;;;;;;1999.90;999.90;;;;;;;3.39;100.00;94824.06;4974928;28;20188;-62
2022/12/02 05:50:43;;;;;;;1999.90;999.90;;;;;;;3.42;100.00;94824.06;4975499;28;20259;-63
2022/12/02 05:53:29;;;;;;;1999.90;999.90;;;;;;;3.39;100.00;94821.34;4974684;28;20176;-62
2022/12/02 05:55:56;;;;;;;1999.90;999.90;;;;;;;3.39;100.00;94822.09;4975561;28;20173;-62
2022/12/02 05:58:22;;;;;;;1999.90;999.90;;;;;;;3.40;100.00;94810.16;4975472;28;20299;-65
2022/12/02 06:00:59;;;;;;;1999.90;999.90;;;;;;;3.44;100.00;94807.50;4974892;28;20263;-62
2022/12/02 06:03:25;;;;;;;1999.90;999.90;;;;;;;3.43;100.00;94798.63;4975575;28;20175;-66
2022/12/02 06:05:54;;;;;;;1999.90;999.90;;;;;;;3.49;100.00;94790.97;4974465;28;20661;-68
2022/12/02 06:08:29;;;;;;;1999.90;999.90;;;;;;;3.53;100.00;94785.63;4974952;28;20260;-65
2022/12/02 06:11:00;;;;;;;1999.90;999.90;;;;;;;3.55;100.00;94794.88;4975273;28;20235;-65
2022/12/02 06:13:28;;;;;;;1999.90;999.90;;;;;;;3.56;100.00;94791.03;4975371;28;20243;-65
2022/12/02 06:15:54;;;;;;;1999.90;999.90;;;;;;;3.54;100.00;94787.94;4975169;28;20627;-65
2022/12/02 06:18:27;;;;;;;1999.90;999.90;;;;;;;3.49;100.00;94789.06;4975169;28;20289;-65
2022/12/02 06:20:58;;;;;;;1999.90;999.90;;;;;;;3.42;100.00;94791.69;4974830;28;20255;-72
2022/12/02 06:23:25;;;;;;;1999.90;999.90;;;;;;;3.47;100.00;94793.28;4974862;28;20243;-62
2022/12/02 06:25:52;;;;;;;1999.90;999.90;;;;;;;3.45;100.00;94785.56;4974226;28;20176;-64
2022/12/02 06:28:35;;;;;;;1999.90;999.90;;;;;;;3.53;100.00;94780.97;4974278;28;20259;-63
2022/12/02 06:31:15;;;;;;;1999.90;999.90;;;;;;;3.53;100.00;94776.38;4974251;28;20176;-64
2022/12/02 06:33:42;;;;;;;1999.90;999.90;;;;;;;3.54;100.00;94782.56;4975401;28;20164;-63
2022/12/02 06:36:14;;;;;;;1999.90;999.90;;;;;;;3.53;100.00;94782.91;4974639;28;20192;-63
2022/12/02 06:39:01;;;;;;;1999.90;999.90;;;;;;;3.54;100.00;94788.69;4975611;28;20211;-63
2022/12/02 06:41:35;;;;;;;1999.90;999.90;;;;;;;3.52;100.00;94790.22;4979155;28;20172;-64
2022/12/02 06:47:24;;;;;;;1999.90;999.90;;;;;;;3.42;100.00;94801.69;4979449;28;20168;-64
2022/12/02 06:49:50;;;;;;;1999.90;999.90;;;;;;;3.48;100.00;94802.91;4978271;28;20242;-65
2022/12/02 06:52:21;;;;;;;1999.90;999.90;;;;;;;3.41;100.00;94806.34;4977998;28;20177;-64
2022/12/02 06:54:46;;;;;;;1999.90;999.90;;;;;;;3.45;100.00;94796.34;4978566;28;20204;-64
2022/12/02 06:57:17;;;;;;;1999.90;999.90;;;;;;;3.53;100.00;94791.00;4978145;28;20538;-63
2022/12/02 06:59:47;;;;;;;1999.90;999.90;;;;;;;3.50;100.00;94801.41;4978236;28;20204;-62
2022/12/02 07:02:30;;;;;;;1999.90;999.90;;;;;;;3.53;100.00;94800.66;4978525;28;20552;-62
2022/12/02 07:04:58;;;;;;;1999.90;999.90;;;;;;;3.51;100.00;94805.63;4977929;28;20193;-62
2022/12/02 07:07:29;;;;;;;1999.90;999.90;;;;;;;3.56;100.00;94801.06;4978067;28;20177;-63
2022/12/02 07:09:59;;;;;;;1999.90;999.90;;;;;;;3.49;100.00;94797.16;4978148;28;20177;-61
2022/12/02 07:12:35;;;;;;;1999.90;999.90;;;;;;;3.48;100.00;94800.22;4977986;28;20247;-62
2022/12/02 07:15:16;;;;;;;1999.90;999.90;;;;;;;3.45;100.00;94790.94;4977776;28;20172;-74
2022/12/02 07:17:43;;;;;;;1999.90;999.90;;;;;;;3.44;100.00;94800.19;4977928;28;20172;-75
2022/12/02 07:20:09;;;;;;;1999.90;999.90;;;;;;;3.44;100.00;94804.81;4977744;28;20224;-67
2022/12/02 07:23:01;;;;;;;1999.90;999.90;;;;;;;3.42;100.00;94802.50;4977386;28;20722;-68
2022/12/02 07:25:34;;;;;;;1999.90;999.90;;;;;;;3.41;100.00;94792.84;4974862;28;20185;-69
2022/12/02 07:28:13;;;;;;;1999.90;999.90;;;;;;;3.45;100.00;94796.34;4977621;28;20169;-66
2022/12/02 07:30:40;;;;;;;1999.90;999.90;;;;;;;3.45;100.00;94795.56;4977548;28;20219;-66
2022/12/02 07:33:06;;;;;;;1999.90;999.90;;;;;;;3.45;100.00;94795.56;4976980;28;20567;-59
2022/12/02 07:35:31;;;;;;;1999.90;999.90;;;;;;;3.47;100.00;94794.03;4978083;28;20179;-61
2022/12/02 07:37:57;;;;;;;1999.90;999.90;;;;;;;3.46;100.00;94803.28;4977199;28;20196;-65
2022/12/02 07:40:23;;;;;;;1999.90;999.90;;;;;;;3.47;100.00;94799.44;4976892;28;20177;-65
2022/12/02 07:42:49;;;;;;;1999.90;999.90;;;;;;;3.52;100.00;94801.03;4977053;28;20224;-65
2022/12/02 07:45:16;;;;;;;1999.90;999.90;;;;;;;3.46;100.00;94803.28;4977284;28;20192;-64
2022/12/02 07:47:42;;;;;;;1999.90;999.90;;;;;;;3.46;100.00;94803.28;4976755;28;20522;-65
2022/12/02 07:50:10;;;;;;;1999.90;999.90;;;;;;;3.46;100.00;94803.28;4976150;28;20188;-65
2022/12/02 07:52:35;;;;;;;1999.90;999.90;;;;;;;3.49;100.00;94802.56;4977428;28;20180;-69
2022/12/02 07:55:01;;;;;;;1999.90;999.90;;;;;;;3.50;100.00;94814.88;4977558;28;20177;-67
2022/12/02 07:57:27;;;;;;;1999.90;999.90;;;;;;;3.54;100.00;94804.91;4977520;28;20701;-65
2022/12/02 07:59:52;;;;;;;1999.90;999.90;;;;;;;3.57;100.00;94818.81;4976726;28;20206;-64
2022/12/02 08:02:18;;;;;;;1999.90;999.90;;;;;;;3.53;100.00;94811.44;4977213;28;20223;-64
2022/12/02 08:04:43;;;;;;;1999.90;999.90;;;;;;;3.56;100.00;94817.25;4976690;28;20283;-65
2022/12/02 08:07:09;;;;;;;1999.90;999.90;;;;;;;3.56;100.00;94822.66;4976755;28;20630;-64
2022/12/02 08:09:34;;;;;;;1999.90;999.90;;;;;;;3.55;100.00;94816.47;4977692;28;20187;-66
2022/12/02 08:11:59;;;;;;;1999.90;999.90;;;;;;;3.58;100.00;94819.19;4977013;28;20177;-61
2022/12/02 08:14:25;;;;;;;1999.90;999.90;;;;;;;3.66;100.00;94816.56;4976772;28;20186;-69
2022/12/02 08:16:50;;;;;;;1999.90;999.90;;;;;;;3.60;100.00;94823.47;4977348;28;20173;-70
2022/12/02 08:19:15;;;;;;;1999.90;999.90;;;;;;;3.64;100.00;94830.44;4976678;28;20209;-67
2022/12/02 08:21:41;;;;;;;1999.90;999.90;;;;;;;3.64;100.00;94835.06;4976020;28;20243;-67
2022/12/02 08:24:07;;;;;;;1999.90;999.90;;;;;;;3.66;100.00;94838.16;4976337;28;20180;-67
2022/12/02 08:26:33;;;;;;;1999.90;999.90;;;;;;;3.68;100.00;94846.66;4976500;28;20230;-69
2022/12/02 08:28:58;;;;;;;1999.90;999.90;;;;;;;3.63;100.00;94853.16;4976554;28;20264;-64
2022/12/02 08:31:24;;;;;;;1999.90;999.90;;;;;;;3.66;100.00;94851.66;4976439;28;20278;-62
2022/12/02 08:33:50;;;;;;;1999.90;999.90;;;;;;;3.66;100.00;94859.75;4976050;28;20301;-62
2022/12/02 08:36:16;;;;;;;1999.90;999.90;;;;;;;3.70;100.00;94865.94;4976251;28;20197;-63
2022/12/02 08:38:42;;;;;;;1999.90;999.90;;;;;;;3.73;100.00;94870.59;4975932;28;20691;-65
2022/12/02 08:41:07;;;;;;;1999.90;999.90;;;;;;;3.75;100.00;94879.13;4976493;28;20212;-63
2022/12/02 08:43:33;;;;;;;1999.90;999.90;;;;;;;3.74;100.00;94878.34;4976103;28;20189;-65
2022/12/02 08:45:58;;;;;;;1999.90;999.90;;;;;;;3.69;100.00;94902.19;4976801;28;20180;-62
2022/12/02 08:48:23;;;;;;;1999.90;999.90;;;;;;;3.66;100.00;94913.72;4976187;28;20264;-66
2022/12/02 08:50:49;;;;;;;1999.90;999.90;;;;;;;3.71;100.00;94921.50;4976013;28;20183;-70
2022/12/02 08:53:14;;;;;;;1999.90;999.90;;;;;;;3.71;100.00;94921.50;4975963;28;20231;-69
2022/12/02 08:55:40;;;;;;;1999.90;999.90;;;;;;;3.76;100.00;94931.97;4975783;28;20259;-69
2022/12/02 08:58:05;;;;;;;1999.90;999.90;;;;;;;3.79;100.00;94934.69;4975707;28;20212;-70
2022/12/02 09:00:30;;;;;;;1999.90;999.90;;;;;;;3.81;100.00;94939.72;4975439;28;20518;-67
2022/12/02 09:02:56;;;;;;;1999.90;999.90;;;;;;;3.83;100.00;94940.13;4975207;28;20180;-68
2022/12/02 09:05:21;;;;;;;1999.90;999.90;;;;;;;3.84;100.00;94947.09;4975537;28;20240;-64
2022/12/02 09:07:47;;;;;;;1999.90;999.90;;;;;;;3.85;100.00;94956.75;4975824;28;20177;-61
2022/12/02 09:10:13;;;;;;;1999.90;999.90;;;;;;;3.77;100.00;94957.81;4975150;28;20180;-62
2022/12/02 09:12:38;;;;;;;1999.90;999.90;;;;;;;3.83;100.00;94956.34;4975458;28;20184;-61
2022/12/02 09:15:04;;;;;;;1999.90;999.90;;;;;;;3.92;100.00;94954.09;4976055;28;20177;-61
2022/12/02 09:17:30;;;;;;;1999.90;999.90;;;;;;;3.98;100.00;94958.03;4975018;28;20206;-61
2022/12/02 09:19:55;;;;;;;1999.90;999.90;;;;;;;3.97;100.00;94959.19;4975176;28;20327;-61
2022/12/02 09:22:21;;;;;;;1999.90;999.90;;;;;;;3.97;100.00;94959.94;4975609;28;20180;-62
2022/12/02 09:24:46;;;;;;;1999.90;999.90;;;;;;;3.99;100.00;94954.16;4976078;28;20224;-63
2022/12/02 09:27:11;;;;;;;1999.90;999.90;;;;;;;4.04;100.00;94962.72;4975910;28;20187;-68
2022/12/02 09:29:37;;;;;;;1999.90;999.90;;;;;;;4.01;100.00;94962.69;4975918;28;20204;-69
2022/12/02 09:32:02;;;;;;;1999.90;999.90;;;;;;;4.13;100.00;94947.00;4975760;28;20192;-71
2022/12/02 09:34:27;;;;;;;1999.90;999.90;;;;;;;4.21;100.00;94945.09;4975220;28;20223;-71
2022/12/02 09:36:53;;;;;;;1999.90;999.90;;;;;;;4.22;100.00;94952.84;4975144;28;20589;-72
2022/12/02 09:39:19;;;;;;;1999.90;999.90;;;;;;;4.23;100.00;94953.63;4975333;28;20225;-72
2022/12/02 09:41:45;;;;;;;1999.90;999.90;;;;;;;4.20;100.00;94957.84;4975064;28;20184;-72
2022/12/02 09:44:10;;;;;;;1999.90;999.90;;;;;;;4.15;100.00;94949.31;4975199;28;20265;-64
2022/12/02 09:46:36;;;;;;;1999.90;999.90;;;;;;;4.10;100.00;94949.63;4975534;28;20522;-62
2022/12/02 09:49:02;;;;;;;1999.90;999.90;;;;;;;4.01;100.00;94957.28;4975712;28;20212;-61
2022/12/02 09:51:28;;;;;;;1999.90;999.90;;;;;;;4.10;100.00;94955.03;4974825;28;20371;-61
2022/12/02 09:53:53;;;;;;;1999.90;999.90;;;;;;;4.02;100.00;94953.44;4974962;28;20188;-62
2022/12/02 09:56:20;;;;;;;1999.90;999.90;;;;;;;4.19;100.00;94947.41;4974824;28;20207;-62
2022/12/02 09:58:49;;;;;;;1999.90;999.90;;;;;;;4.08;100.00;94941.16;4974799;28;20303;-61
2022/12/02 10:01:15;;;;;;;1999.90;999.90;;;;;;;3.97;100.00;94945.69;4974512;28;20177;-59
2022/12/02 10:03:44;;;;;;;1999.90;999.90;;;;;;;3.99;100.00;94936.06;4974725;28;20247;-65
2022/12/02 10:06:18;;;;;;;1999.90;999.90;;;;;;;4.05;100.00;94933.78;4974618;28;20177;-63
2022/12/02 10:08:44;;;;;;;1999.90;999.90;;;;;;;4.17;100.00;94911.88;4975660;28;20287;-64
2022/12/02 10:11:19;;;;;;;1999.90;999.90;;;;;;;4.12;100.00;94920.34;4974447;28;20192;-64
2022/12/02 10:13:45;;;;;;;1999.90;999.90;;;;;;;4.17;100.00;94922.69;4974504;28;20173;-64
2022/12/02 10:16:12;;;;;;;1999.90;999.90;;;;;;;4.29;100.00;94901.56;4974718;28;20213;-64
2022/12/02 10:18:38;;;;;;;1999.90;999.90;;;;;;;4.29;100.00;94893.44;4975189;28;20240;-64
2022/12/02 10:21:03;;;;;;;1999.90;999.90;;;;;;;4.38;100.00;94895.84;4974417;28;20221;-62
2022/12/02 10:23:29;;;;;;;1999.90;999.90;;;;;;;4.40;100.00;94893.56;4974418;28;20189;-61
2022/12/02 10:26:06;;;;;;;1999.90;999.90;;;;;;;4.32;100.00;94902.72;4974575;28;20223;-61
2022/12/02 10:28:35;;;;;;;1999.90;999.90;;;;;;;4.36;100.00;94903.53;4974962;28;20275;-62
2022/12/02 10:31:06;;;;;;;1999.90;999.90;;;;;;;4.34;100.00;94895.03;4974537;28;20172;-62
2022/12/02 10:33:35;;;;;;;1999.90;999.90;;;;;;;4.18;100.00;94897.25;4975263;28;20180;-61
2022/12/02 10:36:00;;;;;;;1999.90;999.90;;;;;;;4.20;100.00;94884.91;4974087;28;20211;-62
2022/12/02 10:38:43;;;;;;;1999.90;999.90;;;;;;;4.05;100.00;94885.16;4974726;28;20634;-65
2022/12/02 10:41:19;;;;;;;1999.90;999.90;;;;;;;3.95;100.00;94872.34;4974296;28;20544;-68
2022/12/02 10:43:51;;;;;;;1999.90;999.90;;;;;;;4.04;100.00;94872.81;4974021;28;20181;-69
2022/12/02 10:46:18;;;;;;;1999.90;999.90;;;;;;;4.10;100.00;94853.19;4974589;28;20184;-68
2022/12/02 10:48:43;;;;;;;1999.90;999.90;;;;;;;4.06;100.00;94851.59;4974253;28;20185;-69
2022/12/02 10:51:13;;;;;;;1999.90;999.90;;;;;;;4.02;100.00;94840.00;4973955;28;20183;-68
2022/12/02 10:53:39;;;;;;;1999.90;999.90;;;;;;;4.03;100.00;94830.72;4974887;28;20195;-68
2022/12/02 10:56:05;;;;;;;1999.90;999.90;;;;;;;3.94;100.00;94825.69;4974649;28;20189;-59
2022/12/02 10:58:30;;;;;;;1999.90;999.90;;;;;;;3.94;100.00;94816.78;4974301;28;20235;-61
2022/12/02 11:00:57;;;;;;;1999.90;999.90;;;;;;;3.95;100.00;94823.72;4974085;28;20181;-68
2022/12/02 11:03:23;;;;;;;1999.90;999.90;;;;;;;3.87;100.00;94805.94;4974448;28;20266;-68